sensor_id;sensor_type;location;lat;lon;timestamp;temperature;humidity
5023;DHT22;2530;47.990;7.866;2022-12-05T00:00:50;3.50;99.90
5023;DHT22;2530;47.990;7.866;2022-12-05T00:03:16;3.50;99.90
5023;DHT22;2530;47.990;7.866;2022-12-05T00:05:41;3.60;99.90
5023;DHT22;2530;47.990;7.866;2022-12-05T00:08:07;3.50;99.90
5023;DHT22;2530;47.990;7.866;2022-12-05T00:10:35;3.60;99.90
5023;DHT22;2530;47.990;7.866;2022-12-05T00:13:01;3.50;99.90
5023;DHT22;2530;47.990;7.866;2022-12-05T00:15:26;3.60;99.90
5023;DHT22;2530;47.990;7.866;2022-12-05T00:17:52;3.50;99.90
5023;DHT22;2530;47.990;7.866;2022-12-05T00:20:17;3.50;99.90
5023;DHT22;2530;47.990;7.866;2022-12-05T00:22:43;3.40;99.90
5023;DHT22;2530;47.990;7.866;2022-12-05T00:25:09;3.40;99.90
5023;DHT22;2530;47.990;7.866;2022-12-05T00:27:35;3.40;99.90
5023;DHT22;2530;47.990;7.866;2022-12-05T00:30:00;3.30;99.90
5023;DHT22;2530;47.990;7.866;2022-12-05T00:32:28;3.30;99.90
5023;DHT22;2530;47.990;7.866;2022-12-05T00:34:54;3.50;99.90
5023;DHT22;2530;47.990;7.866;2022-12-05T00:37:19;3.50;99.90
5023;DHT22;2530;47.990;7.866;2022-12-05T00:39:45;3.50;99.90
5023;DHT22;2530;47.990;7.866;2022-12-05T00:42:11;3.60;99.90
5023;DHT22;2530;47.990;7.866;2022-12-05T00:44:36;3.70;99.90
5023;DHT22;2530;47.990;7.866;2022-12-05T00:47:02;3.70;99.90
5023;DHT22;2530;47.990;7.866;2022-12-05T00:49:27;3.70;99.90
5023;DHT22;2530;47.990;7.866;2022-12-05T00:51:53;3.70;99.90
5023;DHT22;2530;47.990;7.866;2022-12-05T00:54:19;3.50;99.90
5023;DHT22;2530;47.990;7.866;2022-12-05T00:56:45;3.50;99.90
5023;DHT22;2530;47.990;7.866;2022-12-05T00:59:15;3.60;99.90
5023;DHT22;2530;47.990;7.866;2022-12-05T01:01:43;3.50;99.90
5023;DHT22;2530;47.990;7.866;2022-12-05T01:04:12;3.50;99.90
5023;DHT22;2530;47.990;7.866;2022-12-05T01:06:38;3.50;99.90
5023;DHT22;2530;47.990;7.866;2022-12-05T01:09:04;3.50;99.90
5023;DHT22;2530;47.990;7.866;2022-12-05T01:11:30;3.50;99.90
5023;DHT22;2530;47.990;7.866;2022-12-05T01:13:57;3.60;99.90
5023;DHT22;2530;47.990;7.866;2022-12-05T01:16:28;3.60;99.90
5023;DHT22;2530;47.990;7.866;2022-12-05T01:18:56;3.50;99.90
5023;DHT22;2530;47.990;7.866;2022-12-05T01:21:22;3.50;99.90
5023;DHT22;2530;47.990;7.866;2022-12-05T01:23:48;3.50;99.90
5023;DHT22;2530;47.990;7.866;2022-12-05T01:26:16;3.50;99.90
5023;DHT22;2530;47.990;7.866;2022-12-05T01:28:42;3.50;99.90
5023;DHT22;2530;47.990;7.866;2022-12-05T01:31:34;3.60;99.90
5023;DHT22;2530;47.990;7.866;2022-12-05T01:34:02;3.50;99.90
5023;DHT22;2530;47.990;7.866;2022-12-05T01:36:29;3.60;99.90
5023;DHT22;2530;47.990;7.866;2022-12-05T01:38:55;3.50;99.90
5023;DHT22;2530;47.990;7.866;2022-12-05T01:41:27;3.50;99.90
5023;DHT22;2530;47.990;7.866;2022-12-05T01:46:18;3.40;99.90
5023;DHT22;2530;47.990;7.866;2022-12-05T01:48:43;3.50;99.90
5023;DHT22;2530;47.990;7.866;2022-12-05T01:51:09;3.50;99.90
5023;DHT22;2530;47.990;7.866;2022-12-05T01:53:35;3.40;99.90
5023;DHT22;2530;47.990;7.866;2022-12-05T01:56:02;3.40;99.90
5023;DHT22;2530;47.990;7.866;2022-12-05T01:58:31;3.40;99.90
5023;DHT22;2530;47.990;7.866;2022-12-05T02:01:00;3.50;99.90
5023;DHT22;2530;47.990;7.866;2022-12-05T02:03:26;3.50;99.90
5023;DHT22;2530;47.990;7.866;2022-12-05T02:05:53;3.40;99.90
5023;DHT22;2530;47.990;7.866;2022-12-05T02:08:21;3.40;99.90
5023;DHT22;2530;47.990;7.866;2022-12-05T02:10:49;3.40;99.90
5023;DHT22;2530;47.990;7.866;2022-12-05T02:16:52;3.50;99.90
5023;DHT22;2530;47.990;7.866;2022-12-05T02:19:54;3.60;99.90
5023;DHT22;2530;47.990;7.866;2022-12-05T02:26:01;3.60;99.90
5023;DHT22;2530;47.990;7.866;2022-12-05T02:31:15;3.70;99.90
5023;DHT22;2530;47.990;7.866;2022-12-05T02:37:06;3.60;99.90
5023;DHT22;2530;47.990;7.866;2022-12-05T02:39:42;3.60;99.90
5023;DHT22;2530;47.990;7.866;2022-12-05T02:42:14;3.60;99.90
5023;DHT22;2530;47.990;7.866;2022-12-05T02:44:44;3.50;99.90
5023;DHT22;2530;47.990;7.866;2022-12-05T02:47:14;3.60;99.90
5023;DHT22;2530;47.990;7.866;2022-12-05T02:49:42;3.60;99.90
5023;DHT22;2530;47.990;7.866;2022-12-05T02:52:11;3.60;99.90
5023;DHT22;2530;47.990;7.866;2022-12-05T02:54:41;3.50;99.90
5023;DHT22;2530;47.990;7.866;2022-12-05T02:57:08;3.50;99.90
5023;DHT22;2530;47.990;7.866;2022-12-05T02:59:35;3.50;99.90
5023;DHT22;2530;47.990;7.866;2022-12-05T03:02:01;3.50;99.90
5023;DHT22;2530;47.990;7.866;2022-12-05T03:04:28;3.60;99.90
5023;DHT22;2530;47.990;7.866;2022-12-05T03:06:58;3.70;99.90
5023;DHT22;2530;47.990;7.866;2022-12-05T03:09:30;3.60;99.90
5023;DHT22;2530;47.990;7.866;2022-12-05T03:12:04;3.60;99.90
5023;DHT22;2530;47.990;7.866;2022-12-05T03:14:40;3.60;99.90
5023;DHT22;2530;47.990;7.866;2022-12-05T03:17:09;3.70;99.90
5023;DHT22;2530;47.990;7.866;2022-12-05T03:19:49;3.60;99.90
5023;DHT22;2530;47.990;7.866;2022-12-05T03:22:25;3.70;99.90
5023;DHT22;2530;47.990;7.866;2022-12-05T03:24:52;3.70;99.90
5023;DHT22;2530;47.990;7.866;2022-12-05T03:27:40;3.70;99.90
5023;DHT22;2530;47.990;7.866;2022-12-05T03:30:16;3.80;99.90
5023;DHT22;2530;47.990;7.866;2022-12-05T03:32:57;3.80;99.90
5023;DHT22;2530;47.990;7.866;2022-12-05T03:35:50;3.80;99.90
5023;DHT22;2530;47.990;7.866;2022-12-05T03:38:26;3.90;99.90
5023;DHT22;2530;47.990;7.866;2022-12-05T03:43:54;3.90;99.90
5023;DHT22;2530;47.990;7.866;2022-12-05T03:46:46;4.00;99.90
5023;DHT22;2530;47.990;7.866;2022-12-05T03:49:35;4.00;99.90
5023;DHT22;2530;47.990;7.866;2022-12-05T03:52:32;4.00;99.90
5023;DHT22;2530;47.990;7.866;2022-12-05T03:55:02;4.00;99.90
5023;DHT22;2530;47.990;7.866;2022-12-05T03:57:44;4.10;99.90
5023;DHT22;2530;47.990;7.866;2022-12-05T04:00:16;4.10;99.90
5023;DHT22;2530;47.990;7.866;2022-12-05T04:02:57;4.10;99.90
5023;DHT22;2530;47.990;7.866;2022-12-05T04:05:45;4.10;99.90
5023;DHT22;2530;47.990;7.866;2022-12-05T04:08:26;3.90;99.90
5023;DHT22;2530;47.990;7.866;2022-12-05T04:10:57;4.00;99.90
5023;DHT22;2530;47.990;7.866;2022-12-05T04:13:45;4.00;99.90
5023;DHT22;2530;47.990;7.866;2022-12-05T04:16:17;3.90;99.90
5023;DHT22;2530;47.990;7.866;2022-12-05T04:21:52;4.00;99.90
5023;DHT22;2530;47.990;7.866;2022-12-05T04:24:21;4.30;99.90
5023;DHT22;2530;47.990;7.866;2022-12-05T04:27:17;4.10;99.90
5023;DHT22;2530;47.990;7.866;2022-12-05T04:30:12;4.10;99.90
5023;DHT22;2530;47.990;7.866;2022-12-05T04:32:55;4.00;99.90
5023;DHT22;2530;47.990;7.866;2022-12-05T04:38:20;4.20;99.90
5023;DHT22;2530;47.990;7.866;2022-12-05T04:40:57;4.30;99.90
5023;DHT22;2530;47.990;7.866;2022-12-05T04:43:24;4.30;99.90
5023;DHT22;2530;47.990;7.866;2022-12-05T04:45:52;4.30;99.90
5023;DHT22;2530;47.990;7.866;2022-12-05T04:48:20;4.30;99.90
5023;DHT22;2530;47.990;7.866;2022-12-05T04:50:48;4.20;99.90
5023;DHT22;2530;47.990;7.866;2022-12-05T04:53:17;4.30;99.90
5023;DHT22;2530;47.990;7.866;2022-12-05T04:55:46;4.40;99.90
5023;DHT22;2530;47.990;7.866;2022-12-05T04:58:20;4.30;99.90
5023;DHT22;2530;47.990;7.866;2022-12-05T05:03:44;4.30;99.90
5023;DHT22;2530;47.990;7.866;2022-12-05T05:06:13;4.30;99.90
5023;DHT22;2530;47.990;7.866;2022-12-05T05:08:53;4.30;99.90
5023;DHT22;2530;47.990;7.866;2022-12-05T05:11:27;4.20;99.90
5023;DHT22;2530;47.990;7.866;2022-12-05T05:13:53;4.20;99.90
5023;DHT22;2530;47.990;7.866;2022-12-05T05:16:28;4.20;99.90
5023;DHT22;2530;47.990;7.866;2022-12-05T05:18:54;4.30;99.90
5023;DHT22;2530;47.990;7.866;2022-12-05T05:21:23;4.20;99.90
5023;DHT22;2530;47.990;7.866;2022-12-05T05:23:49;4.20;99.90
5023;DHT22;2530;47.990;7.866;2022-12-05T05:26:16;4.40;99.90
5023;DHT22;2530;47.990;7.866;2022-12-05T05:28:42;4.40;99.90
5023;DHT22;2530;47.990;7.866;2022-12-05T05:31:08;4.50;99.90
5023;DHT22;2530;47.990;7.866;2022-12-05T05:33:34;4.50;99.90
5023;DHT22;2530;47.990;7.866;2022-12-05T05:36:09;4.50;99.90
5023;DHT22;2530;47.990;7.866;2022-12-05T05:38:37;4.50;99.90
5023;DHT22;2530;47.990;7.866;2022-12-05T05:41:03;4.60;99.90
5023;DHT22;2530;47.990;7.866;2022-12-05T05:43:29;4.60;99.90
5023;DHT22;2530;47.990;7.866;2022-12-05T05:45:54;4.60;99.90
5023;DHT22;2530;47.990;7.866;2022-12-05T05:48:20;5.10;99.90
5023;DHT22;2530;47.990;7.866;2022-12-05T05:50:45;5.30;99.90
5023;DHT22;2530;47.990;7.866;2022-12-05T05:53:11;5.40;99.90
5023;DHT22;2530;47.990;7.866;2022-12-05T05:55:40;5.50;99.90
5023;DHT22;2530;47.990;7.866;2022-12-05T05:58:06;5.60;99.90
5023;DHT22;2530;47.990;7.866;2022-12-05T06:00:32;5.50;99.90
5023;DHT22;2530;47.990;7.866;2022-12-05T06:02:58;5.50;99.90
5023;DHT22;2530;47.990;7.866;2022-12-05T06:05:23;5.40;99.90
5023;DHT22;2530;47.990;7.866;2022-12-05T06:07:51;5.50;99.90
5023;DHT22;2530;47.990;7.866;2022-12-05T06:10:17;5.50;99.90
5023;DHT22;2530;47.990;7.866;2022-12-05T06:12:43;5.50;99.90
5023;DHT22;2530;47.990;7.866;2022-12-05T06:15:09;5.50;99.90
5023;DHT22;2530;47.990;7.866;2022-12-05T06:17:34;5.60;99.90
5023;DHT22;2530;47.990;7.866;2022-12-05T06:20:00;5.70;99.90
5023;DHT22;2530;47.990;7.866;2022-12-05T06:22:25;5.70;99.90
5023;DHT22;2530;47.990;7.866;2022-12-05T06:24:51;5.70;99.90
5023;DHT22;2530;47.990;7.866;2022-12-05T06:27:16;5.70;99.90
5023;DHT22;2530;47.990;7.866;2022-12-05T06:29:42;5.80;99.90
5023;DHT22;2530;47.990;7.866;2022-12-05T06:32:07;5.80;99.90
5023;DHT22;2530;47.990;7.866;2022-12-05T06:34:33;5.80;99.90
5023;DHT22;2530;47.990;7.866;2022-12-05T06:37:00;5.70;99.90
5023;DHT22;2530;47.990;7.866;2022-12-05T06:39:26;5.90;99.90
5023;DHT22;2530;47.990;7.866;2022-12-05T06:41:51;5.80;99.90
5023;DHT22;2530;47.990;7.866;2022-12-05T06:44:17;5.80;99.90
5023;DHT22;2530;47.990;7.866;2022-12-05T06:46:42;5.80;99.90
5023;DHT22;2530;47.990;7.866;2022-12-05T06:49:09;5.90;99.90
5023;DHT22;2530;47.990;7.866;2022-12-05T06:51:35;5.80;99.90
5023;DHT22;2530;47.990;7.866;2022-12-05T06:54:01;5.50;99.90
5023;DHT22;2530;47.990;7.866;2022-12-05T06:56:27;5.40;99.90
5023;DHT22;2530;47.990;7.866;2022-12-05T06:58:53;5.10;99.90
5023;DHT22;2530;47.990;7.866;2022-12-05T07:01:21;5.10;99.90
5023;DHT22;2530;47.990;7.866;2022-12-05T07:04:19;4.90;99.90
5023;DHT22;2530;47.990;7.866;2022-12-05T07:06:45;4.90;99.90
5023;DHT22;2530;47.990;7.866;2022-12-05T07:09:11;4.90;99.90
5023;DHT22;2530;47.990;7.866;2022-12-05T07:11:37;4.80;99.90
5023;DHT22;2530;47.990;7.866;2022-12-05T07:14:03;5.00;99.90
5023;DHT22;2530;47.990;7.866;2022-12-05T07:18:57;4.90;99.90
5023;DHT22;2530;47.990;7.866;2022-12-05T07:21:23;4.90;99.90
5023;DHT22;2530;47.990;7.866;2022-12-05T07:23:49;4.90;99.90
5023;DHT22;2530;47.990;7.866;2022-12-05T07:26:20;4.90;99.90
5023;DHT22;2530;47.990;7.866;2022-12-05T07:28:47;4.90;99.90
5023;DHT22;2530;47.990;7.866;2022-12-05T07:31:19;5.10;99.90
5023;DHT22;2530;47.990;7.866;2022-12-05T07:33:47;5.40;99.90
5023;DHT22;2530;47.990;7.866;2022-12-05T07:36:15;5.50;99.90
5023;DHT22;2530;47.990;7.866;2022-12-05T07:38:41;5.70;99.90
5023;DHT22;2530;47.990;7.866;2022-12-05T07:41:20;5.60;99.90
5023;DHT22;2530;47.990;7.866;2022-12-05T07:43:46;5.80;99.90
5023;DHT22;2530;47.990;7.866;2022-12-05T07:46:12;5.80;99.90
5023;DHT22;2530;47.990;7.866;2022-12-05T07:48:38;5.90;99.90
5023;DHT22;2530;47.990;7.866;2022-12-05T07:51:05;6.00;99.90
5023;DHT22;2530;47.990;7.866;2022-12-05T07:53:31;6.10;99.90
5023;DHT22;2530;47.990;7.866;2022-12-05T07:55:58;6.10;99.90
5023;DHT22;2530;47.990;7.866;2022-12-05T07:58:25;6.10;99.90
5023;DHT22;2530;47.990;7.866;2022-12-05T08:00:52;6.20;99.90
5023;DHT22;2530;47.990;7.866;2022-12-05T08:03:17;6.10;99.90
5023;DHT22;2530;47.990;7.866;2022-12-05T08:05:43;6.20;99.90
5023;DHT22;2530;47.990;7.866;2022-12-05T08:08:08;6.20;99.90
5023;DHT22;2530;47.990;7.866;2022-12-05T08:10:34;6.20;99.90
5023;DHT22;2530;47.990;7.866;2022-12-05T08:13:00;6.20;99.90
5023;DHT22;2530;47.990;7.866;2022-12-05T08:15:25;6.20;99.90
5023;DHT22;2530;47.990;7.866;2022-12-05T08:17:51;6.20;99.90
5023;DHT22;2530;47.990;7.866;2022-12-05T08:20:16;6.20;99.90
5023;DHT22;2530;47.990;7.866;2022-12-05T08:22:42;6.30;99.90
5023;DHT22;2530;47.990;7.866;2022-12-05T08:25:08;6.30;99.90
5023;DHT22;2530;47.990;7.866;2022-12-05T08:27:34;6.30;99.90
5023;DHT22;2530;47.990;7.866;2022-12-05T08:29:59;6.40;99.90
5023;DHT22;2530;47.990;7.866;2022-12-05T08:32:25;6.30;99.90
5023;DHT22;2530;47.990;7.866;2022-12-05T08:34:51;6.30;99.90
5023;DHT22;2530;47.990;7.866;2022-12-05T08:37:17;6.50;99.90
5023;DHT22;2530;47.990;7.866;2022-12-05T08:39:43;6.40;99.90
5023;DHT22;2530;47.990;7.866;2022-12-05T08:42:08;6.40;99.90
5023;DHT22;2530;47.990;7.866;2022-12-05T08:44:34;6.50;99.90
5023;DHT22;2530;47.990;7.866;2022-12-05T08:46:59;6.60;99.90
5023;DHT22;2530;47.990;7.866;2022-12-05T08:49:25;6.50;99.90
5023;DHT22;2530;47.990;7.866;2022-12-05T08:51:50;6.50;99.90
5023;DHT22;2530;47.990;7.866;2022-12-05T08:54:16;6.60;99.90
5023;DHT22;2530;47.990;7.866;2022-12-05T08:56:42;6.60;99.90
5023;DHT22;2530;47.990;7.866;2022-12-05T08:59:07;6.70;99.90
5023;DHT22;2530;47.990;7.866;2022-12-05T09:01:34;6.70;99.90
5023;DHT22;2530;47.990;7.866;2022-12-05T09:04:03;6.70;99.90
5023;DHT22;2530;47.990;7.866;2022-12-05T09:06:30;6.70;99.90
5023;DHT22;2530;47.990;7.866;2022-12-05T09:08:58;6.70;99.90
5023;DHT22;2530;47.990;7.866;2022-12-05T09:11:27;6.70;99.90
5023;DHT22;2530;47.990;7.866;2022-12-05T09:13:54;6.80;99.90
5023;DHT22;2530;47.990;7.866;2022-12-05T09:16:23;6.70;99.90
5023;DHT22;2530;47.990;7.866;2022-12-05T09:18:49;6.80;99.90
5023;DHT22;2530;47.990;7.866;2022-12-05T09:21:18;6.90;99.90
5023;DHT22;2530;47.990;7.866;2022-12-05T09:23:43;6.90;99.90
5023;DHT22;2530;47.990;7.866;2022-12-05T09:26:12;6.90;99.90
5023;DHT22;2530;47.990;7.866;2022-12-05T09:28:38;6.70;99.90
5023;DHT22;2530;47.990;7.866;2022-12-05T09:31:06;6.80;99.90
5023;DHT22;2530;47.990;7.866;2022-12-05T09:33:35;6.80;99.90
5023;DHT22;2530;47.990;7.866;2022-12-05T09:36:05;6.70;99.90
5023;DHT22;2530;47.990;7.866;2022-12-05T09:38:31;6.80;99.90
5023;DHT22;2530;47.990;7.866;2022-12-05T09:41:20;6.80;99.90
5023;DHT22;2530;47.990;7.866;2022-12-05T09:50:52;6.70;99.90
5023;DHT22;2530;47.990;7.866;2022-12-05T09:55:50;6.90;99.90
5023;DHT22;2530;47.990;7.866;2022-12-05T10:13:07;7.20;99.90
5023;DHT22;2530;47.990;7.866;2022-12-05T10:15:47;7.00;99.90
5023;DHT22;2530;47.990;7.866;2022-12-05T10:18:45;7.20;99.90
5023;DHT22;2530;47.990;7.866;2022-12-05T10:21:19;7.20;99.90
5023;DHT22;2530;47.990;7.866;2022-12-05T10:23:54;7.20;99.90
5023;DHT22;2530;47.990;7.866;2022-12-05T10:26:24;7.30;99.90
5023;DHT22;2530;47.990;7.866;2022-12-05T10:31:40;7.20;99.90
5023;DHT22;2530;47.990;7.866;2022-12-05T10:34:30;7.40;99.90
5023;DHT22;2530;47.990;7.866;2022-12-05T10:37:01;7.50;99.90
5023;DHT22;2530;47.990;7.866;2022-12-05T10:39:32;7.40;99.90
5023;DHT22;2530;47.990;7.866;2022-12-05T10:41:58;7.40;99.90
5023;DHT22;2530;47.990;7.866;2022-12-05T10:44:23;7.50;99.90
5023;DHT22;2530;47.990;7.866;2022-12-05T10:46:49;7.50;99.90
5023;DHT22;2530;47.990;7.866;2022-12-05T10:49:14;7.50;99.90
5023;DHT22;2530;47.990;7.866;2022-12-05T10:51:40;7.40;99.90
5023;DHT22;2530;47.990;7.866;2022-12-05T10:54:19;7.50;99.90
5023;DHT22;2530;47.990;7.866;2022-12-05T10:56:52;7.50;99.90
5023;DHT22;2530;47.990;7.866;2022-12-05T10:59:24;7.60;99.90
5023;DHT22;2530;47.990;7.866;2022-12-05T11:04:21;8.00;99.90
5023;DHT22;2530;47.990;7.866;2022-12-05T11:06:56;8.20;99.90
5023;DHT22;2530;47.990;7.866;2022-12-05T11:09:26;8.30;99.90
5023;DHT22;2530;47.990;7.866;2022-12-05T11:14:33;8.40;99.90
5023;DHT22;2530;47.990;7.866;2022-12-05T11:17:02;8.50;99.90
5023;DHT22;2530;47.990;7.866;2022-12-05T11:19:36;8.70;99.90
5023;DHT22;2530;47.990;7.866;2022-12-05T11:22:03;8.50;99.90
5023;DHT22;2530;47.990;7.866;2022-12-05T11:26:56;8.80;99.90
5023;DHT22;2530;47.990;7.866;2022-12-05T11:29:37;8.60;99.90
5023;DHT22;2530;47.990;7.866;2022-12-05T11:32:49;8.50;99.90
5023;DHT22;2530;47.990;7.866;2022-12-05T11:37:42;7.90;99.90
5023;DHT22;2530;47.990;7.866;2022-12-05T11:40:24;7.80;99.90
5023;DHT22;2530;47.990;7.866;2022-12-05T11:54:20;7.50;99.90
5023;DHT22;2530;47.990;7.866;2022-12-05T11:56:56;7.60;99.90
5023;DHT22;2530;47.990;7.866;2022-12-05T12:07:48;8.10;99.90
5023;DHT22;2530;47.990;7.866;2022-12-05T12:16:12;7.80;99.90
5023;DHT22;2530;47.990;7.866;2022-12-05T12:24:15;7.30;99.90
5023;DHT22;2530;47.990;7.866;2022-12-05T12:32:44;7.40;99.90
5023;DHT22;2530;47.990;7.866;2022-12-05T12:35:25;7.40;99.90
5023;DHT22;2530;47.990;7.866;2022-12-05T12:40:47;7.40;99.90
5023;DHT22;2530;47.990;7.866;2022-12-05T12:43:31;7.40;99.90
5023;DHT22;2530;47.990;7.866;2022-12-05T12:51:12;7.40;99.90
5023;DHT22;2530;47.990;7.866;2022-12-05T12:53:59;7.40;99.90
5023;DHT22;2530;47.990;7.866;2022-12-05T12:56:54;7.50;99.90
5023;DHT22;2530;47.990;7.866;2022-12-05T12:59:41;7.40;99.90
5023;DHT22;2530;47.990;7.866;2022-12-05T13:04:39;7.00;99.90
5023;DHT22;2530;47.990;7.866;2022-12-05T13:07:19;7.00;99.90
5023;DHT22;2530;47.990;7.866;2022-12-05T13:09:55;7.10;99.90
5023;DHT22;2530;47.990;7.866;2022-12-05T13:12:28;7.10;99.90
5023;DHT22;2530;47.990;7.866;2022-12-05T13:15:01;7.40;99.90
5023;DHT22;2530;47.990;7.866;2022-12-05T13:17:30;7.40;99.90
5023;DHT22;2530;47.990;7.866;2022-12-05T13:19:56;7.20;99.90
5023;DHT22;2530;47.990;7.866;2022-12-05T13:22:26;7.20;99.90
5023;DHT22;2530;47.990;7.866;2022-12-05T13:24:53;7.40;99.90
5023;DHT22;2530;47.990;7.866;2022-12-05T13:27:22;7.40;99.90
5023;DHT22;2530;47.990;7.866;2022-12-05T13:29:52;7.20;99.90
5023;DHT22;2530;47.990;7.866;2022-12-05T13:34:49;7.20;99.90
5023;DHT22;2530;47.990;7.866;2022-12-05T13:37:22;7.10;99.90
5023;DHT22;2530;47.990;7.866;2022-12-05T13:43:03;7.20;99.90
5023;DHT22;2530;47.990;7.866;2022-12-05T13:45:29;7.10;99.90
5023;DHT22;2530;47.990;7.866;2022-12-05T13:51:07;7.40;99.90
5023;DHT22;2530;47.990;7.866;2022-12-05T13:53:41;7.60;99.90
5023;DHT22;2530;47.990;7.866;2022-12-05T13:58:46;7.40;99.90
5023;DHT22;2530;47.990;7.866;2022-12-05T14:01:43;7.30;99.90
5023;DHT22;2530;47.990;7.866;2022-12-05T14:04:42;7.40;99.90
5023;DHT22;2530;47.990;7.866;2022-12-05T14:07:09;7.40;99.90
5023;DHT22;2530;47.990;7.866;2022-12-05T14:09:52;7.40;99.90
5023;DHT22;2530;47.990;7.866;2022-12-05T14:17:29;7.50;99.90
5023;DHT22;2530;47.990;7.866;2022-12-05T14:20:18;7.40;99.90
5023;DHT22;2530;47.990;7.866;2022-12-05T14:23:08;7.50;99.90
5023;DHT22;2530;47.990;7.866;2022-12-05T14:28:30;7.50;99.90
5023;DHT22;2530;47.990;7.866;2022-12-05T14:34:16;7.40;99.90
5023;DHT22;2530;47.990;7.866;2022-12-05T14:39:43;7.30;99.90
5023;DHT22;2530;47.990;7.866;2022-12-05T14:44:57;7.30;99.90
5023;DHT22;2530;47.990;7.866;2022-12-05T14:47:30;7.30;99.90
5023;DHT22;2530;47.990;7.866;2022-12-05T15:01:08;7.20;99.90
5023;DHT22;2530;47.990;7.866;2022-12-05T15:03:41;7.20;99.90
5023;DHT22;2530;47.990;7.866;2022-12-05T15:06:13;7.00;99.90
5023;DHT22;2530;47.990;7.866;2022-12-05T15:08:48;6.90;99.90
5023;DHT22;2530;47.990;7.866;2022-12-05T15:11:20;7.00;99.90
5023;DHT22;2530;47.990;7.866;2022-12-05T15:14:20;6.90;99.90
5023;DHT22;2530;47.990;7.866;2022-12-05T15:16:49;7.00;99.90
5023;DHT22;2530;47.990;7.866;2022-12-05T15:19:29;7.00;99.90
5023;DHT22;2530;47.990;7.866;2022-12-05T15:21:59;6.90;99.90
5023;DHT22;2530;47.990;7.866;2022-12-05T15:24:26;6.90;99.90
5023;DHT22;2530;47.990;7.866;2022-12-05T15:26:53;6.90;99.90
5023;DHT22;2530;47.990;7.866;2022-12-05T15:34:34;6.90;99.90
5023;DHT22;2530;47.990;7.866;2022-12-05T15:37:15;6.80;99.90
5023;DHT22;2530;47.990;7.866;2022-12-05T15:40:08;6.80;99.90
5023;DHT22;2530;47.990;7.866;2022-12-05T15:42:42;6.90;99.90
5023;DHT22;2530;47.990;7.866;2022-12-05T15:47:36;6.80;99.90
5023;DHT22;2530;47.990;7.866;2022-12-05T15:50:02;6.80;99.90
5023;DHT22;2530;47.990;7.866;2022-12-05T15:52:37;6.90;99.90
5023;DHT22;2530;47.990;7.866;2022-12-05T15:55:11;6.80;99.90
5023;DHT22;2530;47.990;7.866;2022-12-05T15:57:52;6.80;99.90
5023;DHT22;2530;47.990;7.866;2022-12-05T16:00:19;6.70;99.90
5023;DHT22;2530;47.990;7.866;2022-12-05T16:03:05;6.70;99.90
5023;DHT22;2530;47.990;7.866;2022-12-05T16:05:38;6.70;99.90
5023;DHT22;2530;47.990;7.866;2022-12-05T16:08:05;6.60;99.90
5023;DHT22;2530;47.990;7.866;2022-12-05T16:10:32;6.50;99.90
5023;DHT22;2530;47.990;7.866;2022-12-05T16:13:04;6.50;99.90
5023;DHT22;2530;47.990;7.866;2022-12-05T16:15:31;6.50;99.90
5023;DHT22;2530;47.990;7.866;2022-12-05T16:18:03;6.60;99.90
5023;DHT22;2530;47.990;7.866;2022-12-05T16:20:35;6.60;99.90
5023;DHT22;2530;47.990;7.866;2022-12-05T16:23:20;6.60;99.90
5023;DHT22;2530;47.990;7.866;2022-12-05T16:25:47;6.70;99.90
5023;DHT22;2530;47.990;7.866;2022-12-05T16:28:16;6.60;99.90
5023;DHT22;2530;47.990;7.866;2022-12-05T16:30:56;6.50;99.90
5023;DHT22;2530;47.990;7.866;2022-12-05T16:33:23;6.40;99.90
5023;DHT22;2530;47.990;7.866;2022-12-05T16:35:48;6.40;99.90
5023;DHT22;2530;47.990;7.866;2022-12-05T16:45:47;6.40;99.90
5023;DHT22;2530;47.990;7.866;2022-12-05T16:50:40;6.30;99.90
5023;DHT22;2530;47.990;7.866;2022-12-05T16:55:39;6.20;99.90
5023;DHT22;2530;47.990;7.866;2022-12-05T16:58:10;6.20;99.90
5023;DHT22;2530;47.990;7.866;2022-12-05T17:00:36;6.20;99.90
5023;DHT22;2530;47.990;7.866;2022-12-05T17:03:02;6.20;99.90
5023;DHT22;2530;47.990;7.866;2022-12-05T17:05:27;6.10;99.90
5023;DHT22;2530;47.990;7.866;2022-12-05T17:07:54;6.00;99.90
5023;DHT22;2530;47.990;7.866;2022-12-05T17:10:20;6.00;99.90
5023;DHT22;2530;47.990;7.866;2022-12-05T17:12:45;6.00;99.90
5023;DHT22;2530;47.990;7.866;2022-12-05T17:15:18;6.00;99.90
5023;DHT22;2530;47.990;7.866;2022-12-05T17:17:44;6.10;99.90
5023;DHT22;2530;47.990;7.866;2022-12-05T17:20:10;6.10;99.90
5023;DHT22;2530;47.990;7.866;2022-12-05T17:22:37;6.20;99.90
5023;DHT22;2530;47.990;7.866;2022-12-05T17:25:17;6.20;99.90
5023;DHT22;2530;47.990;7.866;2022-12-05T17:27:45;6.30;99.90
5023;DHT22;2530;47.990;7.866;2022-12-05T17:30:10;6.20;99.90
5023;DHT22;2530;47.990;7.866;2022-12-05T17:32:36;6.20;99.90
5023;DHT22;2530;47.990;7.866;2022-12-05T17:35:04;6.30;99.90
5023;DHT22;2530;47.990;7.866;2022-12-05T17:37:35;6.20;99.90
5023;DHT22;2530;47.990;7.866;2022-12-05T17:40:00;6.20;99.90
5023;DHT22;2530;47.990;7.866;2022-12-05T17:42:26;6.20;99.90
5023;DHT22;2530;47.990;7.866;2022-12-05T17:44:52;6.20;99.90
5023;DHT22;2530;47.990;7.866;2022-12-05T17:47:17;6.20;99.90
5023;DHT22;2530;47.990;7.866;2022-12-05T17:49:43;6.20;99.90
5023;DHT22;2530;47.990;7.866;2022-12-05T17:52:10;6.20;99.90
5023;DHT22;2530;47.990;7.866;2022-12-05T17:54:36;6.20;99.90
5023;DHT22;2530;47.990;7.866;2022-12-05T17:57:01;6.20;99.90
5023;DHT22;2530;47.990;7.866;2022-12-05T17:59:27;6.20;99.90
5023;DHT22;2530;47.990;7.866;2022-12-05T18:01:52;6.20;99.90
5023;DHT22;2530;47.990;7.866;2022-12-05T18:04:18;6.10;99.90
5023;DHT22;2530;47.990;7.866;2022-12-05T18:06:43;6.10;99.90
5023;DHT22;2530;47.990;7.866;2022-12-05T18:09:10;6.10;99.90
5023;DHT22;2530;47.990;7.866;2022-12-05T18:11:35;6.00;99.90
5023;DHT22;2530;47.990;7.866;2022-12-05T18:14:01;6.10;99.90
5023;DHT22;2530;47.990;7.866;2022-12-05T18:16:26;6.20;99.90
5023;DHT22;2530;47.990;7.866;2022-12-05T18:18:52;6.20;99.90
5023;DHT22;2530;47.990;7.866;2022-12-05T18:21:17;6.20;99.90
5023;DHT22;2530;47.990;7.866;2022-12-05T18:23:43;6.20;99.90
5023;DHT22;2530;47.990;7.866;2022-12-05T18:26:09;6.20;99.90
5023;DHT22;2530;47.990;7.866;2022-12-05T18:28:36;6.20;99.90
5023;DHT22;2530;47.990;7.866;2022-12-05T18:31:11;6.20;99.90
5023;DHT22;2530;47.990;7.866;2022-12-05T18:33:39;6.30;99.90
5023;DHT22;2530;47.990;7.866;2022-12-05T18:36:08;6.20;99.90
5023;DHT22;2530;47.990;7.866;2022-12-05T18:38:36;6.20;99.90
5023;DHT22;2530;47.990;7.866;2022-12-05T18:41:02;6.20;99.90
5023;DHT22;2530;47.990;7.866;2022-12-05T18:43:29;6.30;99.90
5023;DHT22;2530;47.990;7.866;2022-12-05T18:45:59;6.20;99.90
5023;DHT22;2530;47.990;7.866;2022-12-05T18:48:25;6.30;99.90
5023;DHT22;2530;47.990;7.866;2022-12-05T18:50:51;6.30;99.90
5023;DHT22;2530;47.990;7.866;2022-12-05T18:53:17;6.30;99.90
5023;DHT22;2530;47.990;7.866;2022-12-05T18:55:43;6.10;99.90
5023;DHT22;2530;47.990;7.866;2022-12-05T18:58:08;6.10;99.90
5023;DHT22;2530;47.990;7.866;2022-12-05T19:00:34;6.20;99.90
5023;DHT22;2530;47.990;7.866;2022-12-05T19:03:00;6.30;99.90
5023;DHT22;2530;47.990;7.866;2022-12-05T19:05:25;6.20;99.90
5023;DHT22;2530;47.990;7.866;2022-12-05T19:07:53;6.10;99.90
5023;DHT22;2530;47.990;7.866;2022-12-05T19:10:19;6.10;99.90
5023;DHT22;2530;47.990;7.866;2022-12-05T19:12:44;6.10;99.90
5023;DHT22;2530;47.990;7.866;2022-12-05T19:15:10;5.90;99.90
5023;DHT22;2530;47.990;7.866;2022-12-05T19:17:36;5.90;99.90
5023;DHT22;2530;47.990;7.866;2022-12-05T19:20:02;5.80;99.90
5023;DHT22;2530;47.990;7.866;2022-12-05T19:22:28;5.80;99.90
5023;DHT22;2530;47.990;7.866;2022-12-05T19:24:54;5.80;99.90
5023;DHT22;2530;47.990;7.866;2022-12-05T19:27:20;5.70;99.90
5023;DHT22;2530;47.990;7.866;2022-12-05T19:29:45;5.60;99.90